Time;durP1;ratioP1;P1;durP2;ratioP2;P2;SDS_P1;SDS_P2;PMS_P1;PMS_P2;Temp;Humidity;BMP_temperature;BMP_pressure;BME280_temperature;BME280_humidity;BME280_pressure;Samples;Min_cycle;Max_cycle;Signal;HPM_P1;HPM_P2
2021/07/21 00:00:50;;;;;;;7.35;5.33;;;;;;;22.82;100.00;100340.23;1675768;83;21065;-91
2021/07/21 00:03:18;;;;;;;13.22;5.83;;;;;;;22.79;100.00;100314.13;1670603;83;21042;-90
2021/07/21 00:05:47;;;;;;;9.93;6.15;;;;;;;22.85;100.00;100302.16;1673308;83;21278;-92
2021/07/21 00:08:41;;;;;;;;;;;;;;;;;;;;;
2021/07/21 00:14:08;;;;;;;9.48;5.75;;;;;;;23.04;100.00;100297.05;1523433;91;21143;-91
2021/07/21 00:16:36;;;;;;;9.15;5.60;;;;;;;23.08;100.00;100261.61;1463479;96;21620;-92
2021/07/21 00:22:00;;;;;;;8.30;6.50;;;;;;;23.26;100.00;100194.09;1527914;92;22112;-91
2021/07/21 00:24:32;;;;;;;11.38;6.75;;;;;;;23.36;100.00;100169.73;1544182;91;21184;-90
2021/07/21 00:27:02;;;;;;;10.18;6.67;;;;;;;23.41;100.00;100149.98;1542659;91;21081;-90
2021/07/21 00:29:30;;;;;;;15.58;6.67;;;;;;;23.34;100.00;100135.13;1525444;92;21122;-92
2021/07/21 00:32:01;;;;;;;7.58;6.10;;;;;;;23.03;100.00;100118.06;1544466;91;21263;-89
2021/07/21 00:34:29;;;;;;;8.25;6.40;;;;;;;22.67;100.00;100079.88;1555828;89;21211;-91
2021/07/21 00:36:56;;;;;;;9.10;6.50;;;;;;;22.60;100.00;100007.95;1640170;82;21211;-90
2021/07/21 00:39:23;;;;;;;7.62;6.10;;;;;;;22.61;100.00;99954.70;1729608;81;21482;-89
2021/07/21 00:41:56;;;;;;;10.48;7.35;;;;;;;22.52;100.00;99949.33;1681447;83;21149;-91
2021/07/21 00:44:23;;;;;;;8.48;7.03;;;;;;;22.39;100.00;99936.92;1657501;84;21911;-91
2021/07/21 00:46:52;;;;;;;10.23;6.62;;;;;;;22.24;100.00;99926.53;1634278;85;21553;-90
2021/07/21 00:49:25;;;;;;;10.85;7.33;;;;;;;22.10;100.00;99936.88;1664837;85;21090;-89
2021/07/21 00:51:54;;;;;;;14.83;7.40;;;;;;;21.96;100.00;99936.92;1671750;83;21019;-90
2021/07/21 00:54:34;;;;;;;;;;;;;;;;;;;;;
2021/07/21 00:57:06;;;;;;;8.80;7.05;;;;;;;21.76;100.00;99917.08;1711238;82;21117;-89
2021/07/21 00:59:35;;;;;;;11.33;7.35;;;;;;;21.64;100.00;99913.41;1718095;82;21050;-87
2021/07/21 01:02:04;;;;;;;14.70;8.15;;;;;;;21.64;100.00;99918.22;1699293;83;21541;-88
2021/07/21 01:04:35;;;;;;;15.23;8.00;;;;;;;21.73;100.00;99907.72;1712974;81;21105;-88
2021/07/21 01:07:07;;;;;;;15.70;8.43;;;;;;;21.67;100.00;99896.59;1717493;82;21121;-91
2021/07/21 01:09:42;;;;;;;8.65;7.05;;;;;;;21.61;100.00;99898.75;1693840;81;21130;-89
2021/07/21 01:12:36;;;;;;;11.90;8.33;;;;;;;21.53;100.00;99905.05;1729517;82;21062;-90
2021/07/21 01:15:13;;;;;;;11.97;7.95;;;;;;;21.51;100.00;99906.28;1722160;82;21120;-89
2021/07/21 01:17:56;;;;;;;11.12;8.40;;;;;;;21.55;100.00;99896.89;1728624;81;21050;-91
2021/07/21 01:21:07;;;;;;;15.83;8.75;;;;;;;21.54;100.00;99884.67;1673260;82;21621;-89
2021/07/21 01:24:19;;;;;;;10.50;8.75;;;;;;;21.49;100.00;99874.69;1674711;82;21571;-88
2021/07/21 01:26:57;;;;;;;14.45;9.13;;;;;;;21.41;100.00;99870.44;1703768;82;21019;-89
2021/07/21 01:29:27;;;;;;;12.20;8.13;;;;;;;21.30;100.00;99868.39;1739895;81;21011;-88
2021/07/21 01:31:58;;;;;;;13.03;8.08;;;;;;;21.20;100.00;99871.95;1707608;82;21037;-89
2021/07/21 01:34:27;;;;;;;;;;;;;;;21.12;100.00;99879.08;1698723;82;21615;-88
2021/07/21 01:36:58;;;;;;;11.90;7.97;;;;;;;21.06;100.00;99870.63;1699005;82;21832;-90
2021/07/21 01:39:42;;;;;;;;;;;;;;;;;;;;;
2021/07/21 01:42:12;;;;;;;8.83;7.87;;;;;;;20.97;100.00;99849.34;1703613;81;21037;-90
2021/07/21 01:44:43;;;;;;;9.53;8.63;;;;;;;20.96;100.00;99852.52;1699838;83;21201;-91
2021/07/21 01:47:22;;;;;;;;;;;;;;;;;;;;;
2021/07/21 01:49:42;;;;;;;18.60;7.78;;;;;;;21.16;100.00;99865.45;1699839;82;21255;-90
2021/07/21 01:52:20;;;;;;;13.93;8.13;;;;;;;21.38;100.00;99848.84;1729277;81;21556;-89
2021/07/21 01:54:50;;;;;;;9.55;7.95;;;;;;;21.42;100.00;99866.77;1706601;82;21061;-89
2021/07/21 01:57:28;;;;;;;15.68;8.65;;;;;;;21.53;100.00;99880.39;1721732;81;21084;-90
2021/07/21 02:00:03;;;;;;;16.17;8.50;;;;;;;21.58;100.00;99872.17;1738731;81;20960;-89
2021/07/21 02:02:54;;;;;;;12.30;8.45;;;;;;;21.75;100.00;99870.41;1621611;86;21202;-89
2021/07/21 02:05:27;;;;;;;10.80;8.53;;;;;;;21.82;100.00;99873.05;1606872;87;21155;-89
2021/07/21 02:08:11;;;;;;;;;;;;;;;;;;;;;
2021/07/21 02:10:48;;;;;;;;;;;;;;;;;;;;;
2021/07/21 02:13:39;;;;;;;;;;;;;;;;;;;;;
2021/07/21 02:16:04;;;;;;;10.38;8.20;;;;;;;22.09;100.00;99855.23;1296990;107;21337;-90
2021/07/21 02:18:50;;;;;;;;;;;;;;;;;;;;;
2021/07/21 02:21:19;;;;;;;;;;;;;;;;;;;;;
2021/07/21 02:24:35;;;;;;;;;;;;;;;;;;;;;
2021/07/21 02:29:27;;;;;;;;;;;;;;;;;;;;;
2021/07/21 02:33:36;;;;;;;11.55;8.45;;;;;;;22.22;100.00;99900.23;1306413;108;21220;-91
2021/07/21 02:36:20;;;;;;;;;;;;;;;;;;;;;
2021/07/21 02:39:04;;;;;;;;;;;;;;;;;;;;;
2021/07/21 02:41:32;;;;;;;10.80;8.33;;;;;;;22.28;100.00;100009.96;1390302;100;21170;-90
2021/07/21 02:44:00;;;;;;;9.78;8.75;;;;;;;21.90;100.00;100076.36;1536612;86;20985;-92
2021/07/21 02:46:27;;;;;;;11.00;8.50;;;;;;;21.54;100.00;100047.56;1635721;81;21293;-91
2021/07/21 02:48:56;;;;;;;11.63;8.48;;;;;;;21.25;100.00;100040.28;1698991;82;21046;-91
2021/07/21 02:51:39;;;;;;;11.88;9.10;;;;;;;21.22;100.00;100038.02;1716449;81;21077;-88
2021/07/21 02:54:19;;;;;;;11.68;10.13;;;;;;;21.33;100.00;100069.23;1702969;82;21012;-90
2021/07/21 02:56:52;;;;;;;13.98;8.63;;;;;;;21.37;100.00;100066.99;1666451;82;21517;-92
2021/07/21 02:59:23;;;;;;;11.03;9.18;;;;;;;21.26;100.00;100047.21;1700646;82;21885;-89
2021/07/21 03:01:52;;;;;;;14.05;9.55;;;;;;;21.23;100.00;100042.30;1701423;83;21521;-89
2021/07/21 03:04:25;;;;;;;12.70;9.83;;;;;;;21.21;100.00;100046.98;1632820;85;21026;-90
2021/07/21 03:06:56;;;;;;;10.88;9.63;;;;;;;21.19;100.00;100049.83;1639188;85;21575;-88
2021/07/21 03:09:25;;;;;;;11.93;9.93;;;;;;;21.20;100.00;100053.28;1651013;85;20962;-87
2021/07/21 03:12:02;;;;;;;11.08;10.00;;;;;;;21.24;100.00;100051.88;1640377;86;21172;-89
2021/07/21 03:14:31;;;;;;;11.18;9.73;;;;;;;21.29;100.00;100054.73;1621269;86;21065;-89
2021/07/21 03:17:02;;;;;;;11.48;9.63;;;;;;;21.31;100.00;100060.66;1640859;86;21629;-88
2021/07/21 03:19:34;;;;;;;11.35;10.23;;;;;;;21.32;100.00;100058.81;1651262;85;21559;-86
2021/07/21 03:22:05;;;;;;;;;;;;;;;21.32;100.00;100058.32;1636019;85;21223;-90
2021/07/21 03:24:41;;;;;;;12.78;9.70;;;;;;;21.34;100.00;100061.59;1641684;85;21497;-87
2021/07/21 03:27:11;;;;;;;10.65;9.63;;;;;;;21.32;100.00;100062.30;1663723;83;21015;-89
2021/07/21 03:30:01;;;;;;;11.12;9.78;;;;;;;21.24;100.00;100056.66;1663617;84;21030;-86
2021/07/21 03:32:30;;;;;;;12.82;10.30;;;;;;;21.21;100.00;100054.42;1686999;82;21074;-89
2021/07/21 03:34:59;;;;;;;11.35;9.78;;;;;;;21.15;100.00;100039.34;1668186;82;21130;-88
2021/07/21 03:37:29;;;;;;;11.43;10.23;;;;;;;21.12;100.00;100031.80;1696345;82;21533;-87
2021/07/21 03:40:05;;;;;;;13.93;9.95;;;;;;;21.07;100.00;100015.70;1681197;83;21085;-88
2021/07/21 03:42:51;;;;;;;11.22;10.13;;;;;;;21.04;100.00;100012.92;1696807;83;21026;-90
2021/07/21 03:45:25;;;;;;;11.43;10.30;;;;;;;21.07;100.00;100020.48;1692798;83;21606;-89
2021/07/21 03:47:55;;;;;;;11.60;10.48;;;;;;;21.07;100.00;100018.35;1709395;83;21072;-87
2021/07/21 03:50:25;;;;;;;12.03;10.82;;;;;;;21.09;100.00;100017.63;1710956;82;21118;-88
2021/07/21 03:52:55;;;;;;;11.73;10.43;;;;;;;21.08;100.00;100014.66;1708557;83;20958;-85
2021/07/21 03:55:25;;;;;;;14.00;9.80;;;;;;;21.06;100.00;100017.52;1692000;83;21080;-86
2021/07/21 03:58:04;;;;;;;21.05;9.65;;;;;;;21.05;100.00;100027.79;1693596;83;20982;-87
2021/07/21 04:00:50;;;;;;;24.45;10.88;;;;;;;21.12;100.00;100045.83;1690742;82;21101;-88
2021/07/21 04:03:21;;;;;;;23.77;10.48;;;;;;;21.28;100.00;100068.98;1707139;82;21114;-88
2021/07/21 04:05:53;;;;;;;11.65;10.30;;;;;;;21.44;100.00;100094.30;1713769;82;21163;-87
2021/07/21 04:08:20;;;;;;;12.65;9.23;;;;;;;21.60;100.00;100114.33;1717628;83;21426;-87
2021/07/21 04:10:53;;;;;;;12.33;10.55;;;;;;;21.72;100.00;100106.11;1692465;82;21097;-88
2021/07/21 04:13:23;;;;;;;11.05;9.78;;;;;;;21.81;100.00;100080.75;1692016;83;21563;-86
2021/07/21 04:16:12;;;;;;;10.63;9.53;;;;;;;21.64;100.00;100029.97;1670588;84;21201;-85
2021/07/21 04:18:40;;;;;;;15.25;9.30;;;;;;;21.32;100.00;99965.65;1664198;84;21030;-86
2021/07/21 04:21:08;;;;;;;9.15;8.33;;;;;;;21.05;100.00;99948.39;1623926;85;21080;-90
2021/07/21 04:23:41;;;;;;;11.08;8.15;;;;;;;20.84;100.00;99965.23;1630759;86;21069;-90
2021/07/21 04:26:10;;;;;;;12.58;8.53;;;;;;;20.70;100.00;100029.17;1669597;83;21124;-89
2021/07/21 04:28:59;;;;;;;14.53;9.05;;;;;;;20.68;100.00;100085.41;1655937;84;21110;-91
2021/07/21 04:31:41;;;;;;;;;;;;;;;;;;;;;
2021/07/21 04:34:02;;;;;;;13.30;8.43;;;;;;;21.01;100.00;100131.59;1664282;83;21385;-90
2021/07/21 04:36:34;;;;;;;12.78;8.70;;;;;;;21.19;100.00;100119.18;1661399;84;21829;-87
2021/07/21 04:39:04;;;;;;;9.28;8.20;;;;;;;21.26;100.00;100114.20;1674172;83;20971;-89
2021/07/21 04:41:57;;;;;;;;;;;;;;;;;;;;;
2021/07/21 04:44:50;;;;;;;11.83;8.63;;;;;;;21.48;100.00;100138.42;1534881;90;21733;-91
2021/07/21 04:47:20;;;;;;;9.75;8.35;;;;;;;21.59;100.00;100129.94;1578929;88;21066;-89
2021/07/21 04:49:50;;;;;;;13.83;9.10;;;;;;;21.64;100.00;100085.11;1576351;87;21051;-89
2021/07/21 04:54:50;;;;;;;10.08;9.08;;;;;;;21.49;100.00;100070.67;1700410;81;21104;-89
2021/07/21 05:01:04;;;;;;;15.80;8.98;;;;;;;21.20;100.00;100119.46;1710685;81;21022;-87
2021/07/21 05:03:54;;;;;;;14.53;9.47;;;;;;;20.94;100.00;100170.75;1621395;85;21133;-91
2021/07/21 05:15:31;;;;;;;;;;;;;;;;;;;;;
2021/07/21 06:03:21;;;;;;;21.40;18.85;;;;;;;21.82;100.00;100194.48;1646871;83;21178;-92
2021/07/21 09:17:14;;;;;;;10.60;9.50;;;;;;;22.49;100.00;99981.07;1491554;93;21178;-91
2021/07/21 09:39:44;;;;;;;10.05;9.13;;;;;;;23.83;100.00;99982.11;1353465;100;22085;-91
2021/07/21 09:54:37;;;;;;;;;;;;;;;;;;;;;
2021/07/21 09:57:24;;;;;;;;;;;;;;;;;;;;;
2021/07/21 10:00:02;;;;;;;;;;;;;;;;;;;;;
2021/07/21 10:02:34;;;;;;;11.40;10.32;;;;;;;24.74;100.00;99937.65;1487555;91;21100;-90
2021/07/21 10:08:04;;;;;;;;;;;;;;;;;;;;;
2021/07/21 10:10:35;;;;;;;;;;;;;;;;;;;;;
2021/07/21 10:13:19;;;;;;;;;;;;;;;;;;;;;
2021/07/21 10:16:44;;;;;;;;;;;;;;;;;;;;;
2021/07/21 10:19:38;;;;;;;;;;;;;;;;;;;;;
2021/07/21 10:26:31;;;;;;;;;;;;;;;;;;;;;
2021/07/21 10:47:32;;;;;;;10.23;9.28;;;;;;;26.36;100.00;99839.22;1291294;108;21326;-91
2021/07/21 10:50:38;;;;;;;;;;;;;;;;;;;;;
2021/07/21 10:59:54;;;;;;;13.75;9.68;;;;;;;26.82;100.00;99821.89;1235571;111;21352;-90
2021/07/21 11:02:27;;;;;;;31.00;11.78;;;;;;;26.96;100.00;99811.66;1275103;110;21299;-92
2021/07/21 11:25:39;;;;;;;;;;;;;;;;;;;;;
2021/07/21 11:28:21;;;;;;;;;;;;;;;;;;;;;
2021/07/21 11:31:06;;;;;;;9.98;8.98;;;;;;;27.54;100.00;99814.11;1272603;109;21236;-89
2021/07/21 11:34:21;;;;;;;;;;;;;;;;;;;;;
2021/07/21 15:01:24;;;;;;;;;;;;;;;;;;;;;
2021/07/21 15:04:48;;;;;;;10.68;9.78;;;;;;;27.11;100.00;99830.34;1495700;92;21308;-92
2021/07/21 15:07:44;;;;;;;11.90;10.80;;;;;;;27.05;100.00;99831.58;1450874;97;21094;-93
2021/07/21 15:13:25;;;;;;;12.80;9.93;;;;;;;26.85;100.00;99826.72;1578643;88;21197;-92
2021/07/21 15:16:11;;;;;;;;;;;;;;;;;;;;;
2021/07/21 15:18:49;;;;;;;;;;;;;;;;;;;;;
2021/07/21 15:21:15;;;;;;;11.28;10.28;;;;;;;26.47;100.00;99810.05;1399857;97;21095;-91
2021/07/21 15:23:58;;;;;;;;;;;;;;;;;;;;;
2021/07/21 15:26:31;;;;;;;;;;;;;;;;;;;;;
2021/07/21 15:29:13;;;;;;;;;;;;;;;;;;;;;
2021/07/21 15:31:55;;;;;;;;;;;;;;;;;;;;;
2021/07/21 15:34:26;;;;;;;13.08;11.88;;;;;;;25.97;100.00;99806.45;1613694;86;21003;-90
2021/07/21 15:37:08;;;;;;;12.68;11.57;;;;;;;25.88;100.00;99797.20;1613171;85;21155;-90
2021/07/21 15:39:35;;;;;;;13.58;12.28;;;;;;;25.80;100.00;99801.06;1626798;86;21159;-89
2021/07/21 15:42:05;;;;;;;16.12;13.68;;;;;;;25.74;100.00;99803.86;1641322;86;21174;-91
2021/07/21 15:47:30;;;;;;;14.75;13.43;;;;;;;25.70;100.00;99817.38;1624029;83;21148;-90
2021/07/21 15:50:07;;;;;;;16.10;14.45;;;;;;;25.65;100.00;99818.08;1699059;81;21644;-91
2021/07/21 15:52:32;;;;;;;14.05;12.63;;;;;;;25.62;100.00;99823.37;1714036;82;21565;-89
2021/07/21 15:55:12;;;;;;;;;;;;;;;;;;;;;
2021/07/21 17:23:10;;;;;;;41.77;27.22;;;;;;;24.79;100.00;99835.31;1608403;84;21058;-89
2021/07/21 17:25:38;;;;;;;38.35;29.02;;;;;;;24.81;100.00;99844.39;1659569;84;21089;-91
2021/07/21 17:28:09;;;;;;;46.60;22.60;;;;;;;24.83;100.00;99847.11;1642599;85;21100;-89
2021/07/21 17:30:35;;;;;;;48.23;20.47;;;;;;;24.84;100.00;99844.75;1626217;85;21167;-87
2021/07/21 17:33:03;;;;;;;20.02;16.50;;;;;;;24.85;100.00;99845.55;1641934;85;22974;-86
2021/07/21 17:35:30;;;;;;;20.30;16.07;;;;;;;24.87;100.00;99853.63;1617793;85;21133;-87
2021/07/21 17:37:57;;;;;;;21.85;16.27;;;;;;;24.87;100.00;99849.63;1640534;85;21089;-87
2021/07/21 17:40:26;;;;;;;16.45;14.85;;;;;;;24.89;100.00;99850.19;1650874;84;21870;-88
2021/07/21 17:42:54;;;;;;;22.87;15.53;;;;;;;24.97;100.00;99851.72;1656337;83;21140;-87
2021/07/21 17:45:21;;;;;;;19.57;15.55;;;;;;;24.98;100.00;99849.85;1629957;84;21698;-88
2021/07/21 17:47:50;;;;;;;16.90;15.13;;;;;;;24.98;100.00;99852.02;1679502;83;21149;-88
2021/07/21 17:50:22;;;;;;;20.10;15.45;;;;;;;24.98;100.00;99860.50;1680513;82;21190;-88
2021/07/21 17:52:50;;;;;;;26.85;17.30;;;;;;;24.96;100.00;99856.75;1627646;84;21029;-88
2021/07/21 17:55:17;;;;;;;30.92;16.35;;;;;;;24.97;100.00;99853.55;1631746;84;22261;-88
2021/07/21 17:57:44;;;;;;;25.60;17.92;;;;;;;25.00;100.00;99850.45;1625175;84;21038;-89
2021/07/21 18:00:15;;;;;;;31.42;19.02;;;;;;;25.01;100.00;99852.87;1637956;83;21081;-89
2021/07/21 18:06:06;;;;;;;25.85;20.72;;;;;;;25.05;100.00;99855.87;1555572;88;21587;-90
2021/07/21 18:08:37;;;;;;;21.33;18.98;;;;;;;25.04;100.00;99856.92;1495986;93;21045;-86
2021/07/21 18:23:57;;;;;;;18.65;16.87;;;;;;;24.62;100.00;99868.91;1657563;85;21666;-88
2021/07/21 18:26:25;;;;;;;18.52;16.73;;;;;;;24.36;100.00;99866.90;1533242;91;21893;-89
2021/07/21 18:28:53;;;;;;;18.10;16.40;;;;;;;24.20;100.00;99867.81;1532377;89;21753;-90
2021/07/21 18:31:21;;;;;;;19.15;17.45;;;;;;;24.07;100.00;99860.80;1619740;86;21097;-88
2021/07/21 18:34:02;;;;;;;;;;;;;;;;;;;;;
2021/07/21 18:39:30;;;;;;;;;;;;;;;;;;;;;
2021/07/21 18:56:43;;;;;;;;;;;;;;;;;;;;;
2021/07/21 19:14:01;;;;;;;19.10;17.23;;;;;;;23.94;100.00;99860.44;1258146;110;21156;-90
2021/07/21 19:16:36;;;;;;;;;;;;;;;;;;;;;
2021/07/21 19:42:40;;;;;;;;;;;;;;;;;;;;;
2021/07/21 19:45:51;;;;;;;;;;;;;;;;;;;;;
2021/07/21 19:49:01;;;;;;;17.48;15.85;;;;;;;23.96;100.00;99923.22;1222760;112;21187;-92
2021/07/21 19:51:51;;;;;;;;;;;;;;;;;;;;;
2021/07/21 19:54:28;;;;;;;;;;;;;;;;;;;;;
2021/07/21 19:57:10;;;;;;;;;;;;;;;;;;;;;
2021/07/21 19:59:49;;;;;;;14.07;12.68;;;;;;;24.05;100.00;99908.60;1279862;110;21231;-92
